createdAt,value
2023-02-03T00:01:23.782Z,64.52
2023-02-03T00:04:26.665Z,63.08
2023-02-03T00:07:29.954Z,63.00
2023-02-03T00:10:35.324Z,63.01
2023-02-03T00:13:38.402Z,63.96
2023-02-03T00:16:41.466Z,63.55
2023-02-03T00:19:44.489Z,63.34
2023-02-03T00:22:47.480Z,64.14
2023-02-03T00:25:50.809Z,64.33
2023-02-03T00:28:54.199Z,64.31
2023-02-03T00:31:59.166Z,64.05
2023-02-03T00:35:02.790Z,64.16
2023-02-03T00:38:05.773Z,64.51
2023-02-03T00:41:08.830Z,65.13
2023-02-03T00:44:11.919Z,65.39
2023-02-03T00:47:14.917Z,65.26
2023-02-03T00:50:17.950Z,65.33
2023-02-03T00:53:20.840Z,66.36
2023-02-03T00:56:23.819Z,60.35
2023-02-03T00:59:27.017Z,57.86
2023-02-03T01:02:30.345Z,61.57
2023-02-03T01:05:33.374Z,64.15
2023-02-03T01:08:36.399Z,62.23
2023-02-03T01:11:39.391Z,58.24
2023-02-03T01:14:42.369Z,56.97
2023-02-03T01:17:45.438Z,60.17
2023-02-03T01:20:48.412Z,63.82
2023-02-03T01:23:52.609Z,65.51
2023-02-03T01:26:55.572Z,72.05
2023-02-03T01:29:58.538Z,66.59
2023-02-03T01:33:01.570Z,61.00
2023-02-03T01:36:04.603Z,53.91
2023-02-03T01:39:08.337Z,55.33
2023-02-03T01:42:16.138Z,59.99
2023-02-03T01:45:19.687Z,66.98
2023-02-03T01:48:22.803Z,65.40
2023-02-03T01:51:26.176Z,61.43
2023-02-03T01:54:37.685Z,53.41
2023-02-03T01:57:52.720Z,56.27
2023-02-03T02:00:57.779Z,61.05
2023-02-03T02:04:03.179Z,62.95
2023-02-03T02:07:07.142Z,70.69
2023-02-03T02:10:11.199Z,67.04
2023-02-03T02:13:17.934Z,60.77
2023-02-03T02:17:05.691Z,51.94
2023-02-03T02:20:24.548Z,54.33
2023-02-03T02:23:53.622Z,55.85
2023-02-03T02:26:59.666Z,58.72
2023-02-03T02:30:24.419Z,60.95
2023-02-03T02:33:42.920Z,64.36
2023-02-03T02:37:07.402Z,69.88
2023-02-03T02:40:24.139Z,69.68
2023-02-03T02:43:40.123Z,69.26
2023-02-03T02:47:02.201Z,65.21
2023-02-03T02:50:09.016Z,61.01
2023-02-03T02:53:15.220Z,54.39
2023-02-03T02:56:19.795Z,55.36
2023-02-03T02:59:22.823Z,56.49
2023-02-03T03:02:34.066Z,57.92
2023-02-03T03:05:37.350Z,61.20
2023-02-03T03:08:52.791Z,66.32
2023-02-03T03:12:05.165Z,72.87
2023-02-03T03:15:14.748Z,67.19
2023-02-03T03:18:31.499Z,61.23
2023-02-03T03:21:46.316Z,57.65
2023-02-03T03:24:55.565Z,57.20
2023-02-03T03:28:06.112Z,58.54
2023-02-03T03:31:09.187Z,58.66
2023-02-03T03:34:14.257Z,59.87
2023-02-03T03:37:46.541Z,65.99
2023-02-03T03:40:57.758Z,73.17
2023-02-03T03:44:06.572Z,67.21
2023-02-03T03:47:17.873Z,62.14
2023-02-03T03:50:29.556Z,61.35
2023-02-03T03:53:37.021Z,60.54
2023-02-03T03:56:58.162Z,61.03
2023-02-03T04:00:04.322Z,62.86
2023-02-03T04:03:21.044Z,59.58
2023-02-03T04:06:24.207Z,55.67
2023-02-03T04:09:27.197Z,55.65
2023-02-03T04:12:30.165Z,58.49
2023-02-03T04:15:34.402Z,62.07
2023-02-03T04:18:37.500Z,71.18
2023-02-03T04:21:40.388Z,68.49
2023-02-03T04:24:43.474Z,58.97
2023-02-03T04:27:46.740Z,55.36
2023-02-03T04:30:49.806Z,56.63
2023-02-03T04:33:52.802Z,57.43
2023-02-03T04:36:55.780Z,58.93
2023-02-03T04:39:58.893Z,62.31
2023-02-03T04:43:07.912Z,67.62
2023-02-03T04:46:11.325Z,67.86
2023-02-03T04:49:14.317Z,69.17
2023-02-03T04:52:17.375Z,70.46
2023-02-03T04:55:20.382Z,74.63
2023-02-03T04:58:23.732Z,68.83
2023-02-03T05:01:26.770Z,64.29
2023-02-03T05:04:29.954Z,61.69
2023-02-03T05:07:32.929Z,57.44
2023-02-03T05:10:35.956Z,55.21
2023-02-03T05:13:38.852Z,56.89
2023-02-03T05:16:41.938Z,57.81
2023-02-03T05:19:45.212Z,59.77
2023-02-03T05:22:48.349Z,61.04
2023-02-03T05:25:51.380Z,63.34
2023-02-03T05:28:56.616Z,66.09
2023-02-03T05:32:00.433Z,65.81
2023-02-03T05:35:03.476Z,66.46
2023-02-03T05:38:06.697Z,69.63
2023-02-03T05:41:30.723Z,70.29
2023-02-03T05:44:33.780Z,70.98
2023-02-03T05:47:36.821Z,71.37
2023-02-03T05:50:39.825Z,72.09
2023-02-03T05:53:42.926Z,73.97
2023-02-03T05:56:45.854Z,74.65
2023-02-03T05:59:49.906Z,74.96
2023-02-03T06:02:58.489Z,75.85
2023-02-03T06:06:01.634Z,75.62
2023-02-03T06:09:06.905Z,76.27
2023-02-03T06:12:09.768Z,76.08
2023-02-03T06:15:13.186Z,75.83
2023-02-03T06:18:16.101Z,75.49
2023-02-03T06:21:20.452Z,75.71
2023-02-03T06:24:23.258Z,75.33
2023-02-03T06:27:26.487Z,74.81
2023-02-03T06:30:29.880Z,75.14
2023-02-03T06:33:33.389Z,75.65
2023-02-03T06:36:36.387Z,75.02
2023-02-03T06:39:39.361Z,75.29
2023-02-03T06:42:46.156Z,76.02
2023-02-03T06:45:49.141Z,76.25
2023-02-03T06:48:52.121Z,76.30
2023-02-03T06:51:55.238Z,76.29
2023-02-03T06:54:58.156Z,75.95
2023-02-03T06:58:01.161Z,75.83
2023-02-03T07:01:04.329Z,75.72
2023-02-03T07:04:07.224Z,75.24
2023-02-03T07:07:10.042Z,75.00
2023-02-03T07:10:12.920Z,75.45
2023-02-03T07:13:15.715Z,74.96
2023-02-03T07:16:18.730Z,74.95
2023-02-03T07:19:21.609Z,74.77
2023-02-03T07:22:24.471Z,74.77
2023-02-03T07:25:27.589Z,74.34
2023-02-03T07:28:35.208Z,74.33
2023-02-03T07:31:38.626Z,74.38
2023-02-03T07:34:41.616Z,74.23
2023-02-03T07:37:44.910Z,74.06
2023-02-03T07:40:47.803Z,74.28
2023-02-03T07:43:50.692Z,73.81
2023-02-03T07:46:53.554Z,73.84
2023-02-03T07:49:56.486Z,74.00
2023-02-03T07:53:00.225Z,73.89
2023-02-03T07:56:05.362Z,73.83
2023-02-03T07:59:08.543Z,73.55
2023-02-03T08:02:14.105Z,73.17
2023-02-03T08:05:18.587Z,73.19
2023-02-03T08:08:21.394Z,72.50
2023-02-03T08:11:24.202Z,72.80
2023-02-03T08:14:27.080Z,72.76
2023-02-03T08:17:29.911Z,72.43
2023-02-03T08:20:32.713Z,71.99
2023-02-03T08:23:35.590Z,71.99
2023-02-03T08:26:38.991Z,71.73
2023-02-03T08:29:41.946Z,71.96
2023-02-03T08:32:44.804Z,72.33
2023-02-03T08:35:49.978Z,72.58
2023-02-03T08:38:52.942Z,72.76
2023-02-03T08:41:55.734Z,72.89
2023-02-03T08:44:59.015Z,72.72
2023-02-03T08:48:01.967Z,72.61
2023-02-03T08:51:16.061Z,72.76
2023-02-03T08:54:19.471Z,73.04
2023-02-03T08:57:22.321Z,73.11
2023-02-03T09:00:25.495Z,73.10
2023-02-03T09:03:28.531Z,73.06
2023-02-03T09:06:31.533Z,72.97
2023-02-03T09:09:37.030Z,72.65
2023-02-03T09:12:39.948Z,72.35
2023-02-03T09:15:42.752Z,72.39
2023-02-03T09:18:46.524Z,72.18
2023-02-03T09:21:49.746Z,71.93
2023-02-03T09:24:52.707Z,71.81
2023-02-03T09:27:55.711Z,71.81
2023-02-03T09:31:03.485Z,71.90
2023-02-03T09:34:06.394Z,72.24
2023-02-03T09:37:09.266Z,72.76
2023-02-03T09:40:31.103Z,73.03
2023-02-03T09:43:46.882Z,73.06
2023-02-03T09:46:55.563Z,73.00
2023-02-03T09:50:01.959Z,73.15
2023-02-03T09:53:08.112Z,73.36
2023-02-03T09:56:36.347Z,73.45
2023-02-03T09:59:40.986Z,73.96
2023-02-03T10:02:55.811Z,74.40
2023-02-03T10:06:31.824Z,74.59
2023-02-03T10:09:56.253Z,74.72
2023-02-03T10:13:10.226Z,75.09
2023-02-03T10:16:31.616Z,75.58
2023-02-03T10:19:44.575Z,76.04
2023-02-03T10:22:58.779Z,76.21
2023-02-03T10:26:09.591Z,76.16
2023-02-03T10:29:37.701Z,76.00
2023-02-03T10:32:40.489Z,76.10
2023-02-03T10:35:49.203Z,76.21
2023-02-03T10:39:24.569Z,76.41
2023-02-03T10:42:50.247Z,76.42
2023-02-03T10:45:53.293Z,76.70
2023-02-03T10:48:57.415Z,76.72
2023-02-03T10:52:05.069Z,76.81
2023-02-03T10:55:30.229Z,77.03
2023-02-03T10:58:34.600Z,77.18
2023-02-03T11:01:44.626Z,77.28
2023-02-03T11:04:47.608Z,77.34
2023-02-03T11:07:52.475Z,77.39
2023-02-03T11:11:03.255Z,77.52
2023-02-03T11:14:09.073Z,77.60
2023-02-03T11:17:19.294Z,77.57
2023-02-03T11:20:26.722Z,77.56
2023-02-03T11:23:29.992Z,77.62
2023-02-03T11:26:42.042Z,77.76
2023-02-03T11:29:48.775Z,77.86
2023-02-03T11:32:53.426Z,77.85
2023-02-03T11:35:59.232Z,77.90
2023-02-03T11:39:30.287Z,77.87
2023-02-03T11:42:36.074Z,78.12
2023-02-03T11:45:48.611Z,78.23
2023-02-03T11:49:10.435Z,78.22
2023-02-03T11:52:22.598Z,78.65
2023-02-03T11:55:54.866Z,79.01
2023-02-03T11:59:33.281Z,79.14
2023-02-03T12:02:53.532Z,79.35
2023-02-03T12:06:07.211Z,79.27
2023-02-03T12:09:22.906Z,79.28
2023-02-03T12:12:56.252Z,79.13
2023-02-03T12:16:31.991Z,78.98
2023-02-03T12:19:59.276Z,78.74
2023-02-03T12:23:05.111Z,78.67
2023-02-03T12:26:18.579Z,78.66
2023-02-03T12:29:28.473Z,78.59
2023-02-03T12:32:38.618Z,78.66
2023-02-03T12:35:52.134Z,78.80
2023-02-03T12:39:09.302Z,78.98
2023-02-03T12:42:24.527Z,79.31
2023-02-03T12:45:35.116Z,79.69
2023-02-03T12:48:44.280Z,80.07
2023-02-03T12:51:52.109Z,80.67
2023-02-03T12:55:16.325Z,80.86
2023-02-03T12:58:37.280Z,80.97
2023-02-03T13:01:51.274Z,81.22
2023-02-03T13:05:01.813Z,81.57
2023-02-03T13:08:23.600Z,81.88
2023-02-03T13:11:48.673Z,82.23
2023-02-03T13:15:16.250Z,82.46
2023-02-03T13:18:34.795Z,82.67
2023-02-03T13:21:37.801Z,82.65
2023-02-03T13:24:50.669Z,82.72
2023-02-03T13:28:06.465Z,82.53
2023-02-03T13:31:43.891Z,82.81
2023-02-03T13:35:12.979Z,83.12
2023-02-03T13:39:02.872Z,83.23
2023-02-03T13:42:20.408Z,83.56
2023-02-03T13:45:39.084Z,84.15
2023-02-03T13:48:45.855Z,84.17
2023-02-03T13:51:48.869Z,84.18
2023-02-03T13:54:51.944Z,84.28
2023-02-03T13:57:55.333Z,84.49
2023-02-03T14:01:05.493Z,84.60
2023-02-03T14:04:28.771Z,84.55
2023-02-03T14:07:35.204Z,84.72
2023-02-03T14:10:38.306Z,84.95
2023-02-03T14:13:41.364Z,85.11
2023-02-03T14:16:51.971Z,85.15
2023-02-03T14:19:56.401Z,85.46
2023-02-03T14:23:05.523Z,85.72
2023-02-03T14:26:18.131Z,86.22
2023-02-03T14:29:25.824Z,86.91
2023-02-03T14:32:48.356Z,86.94
2023-02-03T14:35:51.562Z,86.93
2023-02-03T14:38:56.649Z,86.61
2023-02-03T14:42:02.422Z,86.90
2023-02-03T14:45:14.599Z,86.90
2023-02-03T14:48:33.065Z,86.86
2023-02-03T14:51:42.214Z,86.75
2023-02-03T14:55:34.651Z,86.83
2023-02-03T14:58:46.071Z,86.77
2023-02-03T15:01:49.093Z,86.81
2023-02-03T15:05:13.136Z,86.84
2023-02-03T15:08:42.414Z,86.86
2023-02-03T15:11:45.503Z,86.66
2023-02-03T15:14:48.731Z,86.64
2023-02-03T15:17:54.417Z,86.65
2023-02-03T15:20:57.779Z,86.88
2023-02-03T15:24:00.850Z,86.55
2023-02-03T15:27:03.955Z,86.55
2023-02-03T15:30:19.574Z,86.53
2023-02-03T15:33:24.197Z,87.03
2023-02-03T15:36:39.796Z,87.21
2023-02-03T15:39:54.368Z,87.75
2023-02-03T15:43:06.604Z,87.59
2023-02-03T15:46:19.306Z,87.38
2023-02-03T15:49:40.373Z,87.53
2023-02-03T15:52:46.047Z,87.82
2023-02-03T15:55:53.412Z,87.73
2023-02-03T15:58:59.037Z,87.78
2023-02-03T16:02:15.228Z,87.70
2023-02-03T16:05:32.036Z,87.91
2023-02-03T16:08:38.807Z,88.22
2023-02-03T16:15:05.304Z,88.28
2023-02-03T16:18:18.282Z,88.97
2023-02-03T16:21:34.251Z,89.19
2023-02-03T16:24:40.652Z,89.26
2023-02-03T16:27:45.657Z,89.30
2023-02-03T16:31:20.013Z,89.26
2023-02-03T16:34:41.902Z,89.56
2023-02-03T16:38:03.467Z,89.55
2023-02-03T16:41:35.491Z,89.49
2023-02-03T16:44:57.204Z,89.04
2023-02-03T16:48:19.045Z,88.71
2023-02-03T16:51:22.034Z,88.71
2023-02-03T16:54:25.605Z,88.85
2023-02-03T16:57:28.547Z,88.92
2023-02-03T17:00:31.721Z,88.63
2023-02-03T17:03:36.306Z,88.68
2023-02-03T17:06:40.145Z,88.67
2023-02-03T17:09:43.082Z,88.93
2023-02-03T17:12:46.304Z,89.00
2023-02-03T17:15:52.891Z,88.78
2023-02-03T17:18:55.893Z,88.72
2023-02-03T17:21:58.966Z,88.87
2023-02-03T17:25:02.129Z,88.73
2023-02-03T17:28:07.237Z,88.64
2023-02-03T17:31:19.133Z,88.66
2023-02-03T17:34:22.446Z,88.59
2023-02-03T17:37:25.460Z,88.67
2023-02-03T17:53:52.634Z,88.59
2023-02-03T17:56:55.549Z,88.96
2023-02-03T17:59:59.596Z,88.98
2023-02-03T18:03:02.985Z,88.80
2023-02-03T18:06:07.392Z,88.67
2023-02-03T18:09:10.456Z,88.52
2023-02-03T18:12:13.880Z,88.41
2023-02-03T18:15:16.905Z,88.04
2023-02-03T18:18:21.626Z,87.45
2023-02-03T18:21:26.420Z,86.96
2023-02-03T18:24:30.686Z,86.46
2023-02-03T18:27:33.701Z,86.14
2023-02-03T18:30:36.840Z,85.66
2023-02-03T18:33:40.404Z,85.01
2023-02-03T18:36:43.544Z,84.55
2023-02-03T18:39:47.266Z,84.26
2023-02-03T18:42:50.254Z,83.33
2023-02-03T18:45:53.104Z,82.61
2023-02-03T18:48:56.687Z,81.86
2023-02-03T18:51:59.552Z,81.55
2023-02-03T18:55:02.667Z,81.59
2023-02-03T18:58:05.813Z,81.14
2023-02-03T19:01:08.897Z,81.32
2023-02-03T19:04:11.921Z,81.27
2023-02-03T19:07:14.927Z,81.31
2023-02-03T19:10:18.445Z,81.42
2023-02-03T19:13:22.067Z,81.71
2023-02-03T19:16:25.082Z,82.46
2023-02-03T19:19:28.279Z,83.65
2023-02-03T19:22:32.761Z,84.43
2023-02-03T19:25:36.515Z,85.37
2023-02-03T19:28:40.724Z,86.03
2023-02-03T19:31:43.976Z,86.84
2023-02-03T19:34:47.249Z,87.77
2023-02-03T19:37:50.354Z,88.48
2023-02-03T19:40:53.326Z,89.05
2023-02-03T19:43:56.729Z,89.58
2023-02-03T19:46:59.775Z,89.86
2023-02-03T19:50:02.768Z,90.00
2023-02-03T19:53:08.458Z,90.30
2023-02-03T19:56:11.622Z,90.57
2023-02-03T19:59:14.647Z,90.62
2023-02-03T20:02:17.783Z,90.68
2023-02-03T20:05:21.300Z,90.68
2023-02-03T20:08:24.456Z,90.71
2023-02-03T20:11:28.534Z,90.54
2023-02-03T20:14:32.976Z,90.77
2023-02-03T20:17:36.352Z,90.77
2023-02-03T20:20:39.409Z,90.93
2023-02-03T20:23:42.604Z,90.61
2023-02-03T20:26:45.966Z,90.51
2023-02-03T20:29:49.782Z,90.60
2023-02-03T20:32:54.950Z,90.67
2023-02-03T20:35:58.733Z,91.13
2023-02-03T20:39:01.936Z,90.58
2023-02-03T20:42:19.244Z,90.24
2023-02-03T20:45:25.003Z,90.02
2023-02-03T20:48:28.361Z,89.85
2023-02-03T20:51:32.302Z,89.85
2023-02-03T20:54:35.629Z,89.87
2023-02-03T20:57:38.669Z,90.06
2023-02-03T21:00:42.299Z,89.07
2023-02-03T21:04:04.041Z,88.26
2023-02-03T21:07:14.557Z,88.51
2023-02-03T21:10:21.153Z,88.77
2023-02-03T21:13:26.329Z,87.32
2023-02-03T21:16:39.658Z,86.43
2023-02-03T21:19:42.774Z,85.67
2023-02-03T21:22:45.788Z,85.19
2023-02-03T21:25:49.152Z,84.39
2023-02-03T21:28:57.680Z,84.28
2023-02-03T21:32:00.962Z,84.51
2023-02-03T21:35:24.563Z,85.49
2023-02-03T21:38:33.266Z,86.14
2023-02-03T21:41:36.591Z,86.36
2023-02-03T21:44:40.679Z,84.57
2023-02-03T21:47:45.581Z,84.99
2023-02-03T21:50:48.798Z,84.82
2023-02-03T21:53:55.395Z,85.08
2023-02-03T21:56:58.473Z,85.61
2023-02-03T22:00:01.492Z,85.61
2023-02-03T22:03:08.481Z,86.56
2023-02-03T22:06:19.675Z,86.76
2023-02-03T22:09:25.115Z,87.15
2023-02-03T22:12:28.034Z,88.98
2023-02-03T22:15:31.143Z,89.02
2023-02-03T22:18:34.209Z,86.58
2023-02-03T22:21:37.232Z,87.12
2023-02-03T22:24:40.109Z,85.24
2023-02-03T22:27:43.213Z,82.97
2023-02-03T22:30:46.339Z,79.81
2023-02-03T22:33:49.357Z,79.55
2023-02-03T22:36:52.292Z,78.75
2023-02-03T22:39:55.158Z,77.99
2023-02-03T22:42:58.169Z,78.01
2023-02-03T22:46:04.893Z,77.87
2023-02-03T22:49:08.104Z,77.42
2023-02-03T22:52:11.089Z,76.30
2023-02-03T22:55:13.959Z,75.25
2023-02-03T22:58:16.941Z,75.85
2023-02-03T23:01:19.904Z,75.74
2023-02-03T23:04:23.766Z,75.24
2023-02-03T23:07:26.801Z,75.74
2023-02-03T23:10:33.254Z,75.49
2023-02-03T23:13:36.287Z,76.07
2023-02-03T23:16:39.425Z,75.99
2023-02-03T23:19:42.457Z,75.26
2023-02-03T23:22:45.595Z,76.02
2023-02-03T23:25:48.489Z,76.68
2023-02-03T23:28:51.434Z,76.51
2023-02-03T23:31:54.351Z,75.89
2023-02-03T23:35:15.936Z,75.54
2023-02-03T23:38:19.114Z,75.25
2023-02-03T23:41:21.944Z,74.91
2023-02-03T23:44:24.892Z,75.28
2023-02-03T23:47:27.737Z,75.20
2023-02-03T23:50:31.074Z,74.95
2023-02-03T23:53:34.162Z,75.21
2023-02-03T23:56:37.061Z,75.84
2023-02-03T23:59:40.026Z,75.53
